sensor_id;sensor_type;location;lat;lon;timestamp;temperature;humidity
59148;DHT22;44930;52.878;6.168;2023-06-24T00:01:28;16.40;99.90
59148;DHT22;44930;52.878;6.168;2023-06-24T00:03:54;16.70;99.90
59148;DHT22;44930;52.878;6.168;2023-06-24T00:06:20;16.90;99.90
59148;DHT22;44930;52.878;6.168;2023-06-24T00:08:48;16.30;99.90
59148;DHT22;44930;52.878;6.168;2023-06-24T00:11:14;16.50;99.90
59148;DHT22;44930;52.878;6.168;2023-06-24T00:13:41;16.30;99.90
59148;DHT22;44930;52.878;6.168;2023-06-24T00:16:07;16.20;99.90
59148;DHT22;44930;52.878;6.168;2023-06-24T00:18:34;16.30;99.90
59148;DHT22;44930;52.878;6.168;2023-06-24T00:20:59;16.30;99.90
59148;DHT22;44930;52.878;6.168;2023-06-24T00:23:27;15.80;99.90
59148;DHT22;44930;52.878;6.168;2023-06-24T00:25:54;16.30;99.90
59148;DHT22;44930;52.878;6.168;2023-06-24T00:28:21;16.20;99.90
59148;DHT22;44930;52.878;6.168;2023-06-24T00:30:47;16.70;99.90
59148;DHT22;44930;52.878;6.168;2023-06-24T00:33:13;16.10;99.90
59148;DHT22;44930;52.878;6.168;2023-06-24T00:35:39;16.70;99.90
59148;DHT22;44930;52.878;6.168;2023-06-24T00:38:05;16.00;99.90
59148;DHT22;44930;52.878;6.168;2023-06-24T00:40:31;16.20;99.90
59148;DHT22;44930;52.878;6.168;2023-06-24T00:42:57;16.30;99.90
59148;DHT22;44930;52.878;6.168;2023-06-24T00:45:24;16.20;99.90
59148;DHT22;44930;52.878;6.168;2023-06-24T00:47:49;15.90;99.90
59148;DHT22;44930;52.878;6.168;2023-06-24T00:50:15;15.80;99.90
59148;DHT22;44930;52.878;6.168;2023-06-24T00:52:41;15.90;99.90
59148;DHT22;44930;52.878;6.168;2023-06-24T00:55:11;16.10;99.90
59148;DHT22;44930;52.878;6.168;2023-06-24T01:00:05;15.70;99.90
59148;DHT22;44930;52.878;6.168;2023-06-24T01:02:38;15.50;99.90
59148;DHT22;44930;52.878;6.168;2023-06-24T01:05:04;15.30;99.90
59148;DHT22;44930;52.878;6.168;2023-06-24T01:07:34;15.30;99.90
59148;DHT22;44930;52.878;6.168;2023-06-24T01:10:02;15.30;99.90
59148;DHT22;44930;52.878;6.168;2023-06-24T01:12:28;15.00;99.90
59148;DHT22;44930;52.878;6.168;2023-06-24T01:17:24;15.40;99.90
59148;DHT22;44930;52.878;6.168;2023-06-24T01:20:02;15.50;99.90
59148;DHT22;44930;52.878;6.168;2023-06-24T01:25:42;15.20;99.90
59148;DHT22;44930;52.878;6.168;2023-06-24T01:33:38;15.20;99.90
59148;DHT22;44930;52.878;6.168;2023-06-24T01:36:09;15.20;99.90
59148;DHT22;44930;52.878;6.168;2023-06-24T01:38:48;15.10;99.90
59148;DHT22;44930;52.878;6.168;2023-06-24T01:41:20;15.20;99.90
59148;DHT22;44930;52.878;6.168;2023-06-24T01:43:48;15.30;99.90
59148;DHT22;44930;52.878;6.168;2023-06-24T01:46:16;15.10;99.90
59148;DHT22;44930;52.878;6.168;2023-06-24T01:48:46;15.30;99.90
59148;DHT22;44930;52.878;6.168;2023-06-24T01:51:16;15.30;99.90
59148;DHT22;44930;52.878;6.168;2023-06-24T01:53:47;15.10;99.90
59148;DHT22;44930;52.878;6.168;2023-06-24T01:56:14;14.90;99.90
59148;DHT22;44930;52.878;6.168;2023-06-24T01:58:42;15.10;99.90
59148;DHT22;44930;52.878;6.168;2023-06-24T02:01:08;14.90;99.90
59148;DHT22;44930;52.878;6.168;2023-06-24T02:03:35;15.60;99.90
59148;DHT22;44930;52.878;6.168;2023-06-24T02:06:02;14.90;99.90
59148;DHT22;44930;52.878;6.168;2023-06-24T02:08:33;15.30;99.90
59148;DHT22;44930;52.878;6.168;2023-06-24T02:11:01;14.90;99.90
59148;DHT22;44930;52.878;6.168;2023-06-24T02:13:29;14.90;99.90
59148;DHT22;44930;52.878;6.168;2023-06-24T02:15:59;14.60;99.90
59148;DHT22;44930;52.878;6.168;2023-06-24T02:18:27;14.60;99.90
59148;DHT22;44930;52.878;6.168;2023-06-24T02:20:53;14.90;99.90
59148;DHT22;44930;52.878;6.168;2023-06-24T02:23:20;15.00;99.90
59148;DHT22;44930;52.878;6.168;2023-06-24T02:25:47;14.70;99.90
59148;DHT22;44930;52.878;6.168;2023-06-24T02:28:14;14.80;99.90
59148;DHT22;44930;52.878;6.168;2023-06-24T02:30:41;14.40;99.90
59148;DHT22;44930;52.878;6.168;2023-06-24T02:33:07;15.10;99.90
59148;DHT22;44930;52.878;6.168;2023-06-24T02:35:34;14.50;99.90
59148;DHT22;44930;52.878;6.168;2023-06-24T02:38:00;15.10;99.90
59148;DHT22;44930;52.878;6.168;2023-06-24T02:40:26;14.90;99.90
59148;DHT22;44930;52.878;6.168;2023-06-24T02:42:52;15.20;99.90
59148;DHT22;44930;52.878;6.168;2023-06-24T02:45:18;14.90;99.90
59148;DHT22;44930;52.878;6.168;2023-06-24T02:47:45;14.90;99.90
59148;DHT22;44930;52.878;6.168;2023-06-24T02:50:11;14.90;99.90
59148;DHT22;44930;52.878;6.168;2023-06-24T02:52:38;14.70;99.90
59148;DHT22;44930;52.878;6.168;2023-06-24T02:55:05;14.80;99.90
59148;DHT22;44930;52.878;6.168;2023-06-24T02:57:31;14.80;99.90
59148;DHT22;44930;52.878;6.168;2023-06-24T02:59:57;14.60;99.90
59148;DHT22;44930;52.878;6.168;2023-06-24T03:02:23;14.70;99.90
59148;DHT22;44930;52.878;6.168;2023-06-24T03:04:50;14.70;99.90
59148;DHT22;44930;52.878;6.168;2023-06-24T03:07:16;14.60;99.90
59148;DHT22;44930;52.878;6.168;2023-06-24T03:09:46;14.80;99.90
59148;DHT22;44930;52.878;6.168;2023-06-24T03:12:12;14.50;99.90
59148;DHT22;44930;52.878;6.168;2023-06-24T03:14:37;15.10;99.90
59148;DHT22;44930;52.878;6.168;2023-06-24T03:17:03;14.80;99.90
59148;DHT22;44930;52.878;6.168;2023-06-24T03:19:29;14.90;99.90
59148;DHT22;44930;52.878;6.168;2023-06-24T03:21:55;14.80;99.90
59148;DHT22;44930;52.878;6.168;2023-06-24T03:24:20;14.30;99.90
59148;DHT22;44930;52.878;6.168;2023-06-24T03:26:46;14.60;99.90
59148;DHT22;44930;52.878;6.168;2023-06-24T03:29:12;14.20;99.90
59148;DHT22;44930;52.878;6.168;2023-06-24T03:31:38;14.70;99.90
59148;DHT22;44930;52.878;6.168;2023-06-24T03:34:10;14.70;99.90
59148;DHT22;44930;52.878;6.168;2023-06-24T03:36:36;14.70;99.90
59148;DHT22;44930;52.878;6.168;2023-06-24T03:39:04;15.10;99.90
59148;DHT22;44930;52.878;6.168;2023-06-24T03:41:30;14.80;99.90
59148;DHT22;44930;52.878;6.168;2023-06-24T03:43:55;14.70;99.90
59148;DHT22;44930;52.878;6.168;2023-06-24T03:46:21;14.70;99.90
59148;DHT22;44930;52.878;6.168;2023-06-24T03:48:47;14.60;99.90
59148;DHT22;44930;52.878;6.168;2023-06-24T03:51:13;14.50;99.90
59148;DHT22;44930;52.878;6.168;2023-06-24T03:53:38;14.70;99.90
59148;DHT22;44930;52.878;6.168;2023-06-24T03:56:04;14.80;99.90
59148;DHT22;44930;52.878;6.168;2023-06-24T03:58:30;14.50;99.90
59148;DHT22;44930;52.878;6.168;2023-06-24T04:00:56;14.40;99.90
59148;DHT22;44930;52.878;6.168;2023-06-24T04:03:23;14.60;99.90
59148;DHT22;44930;52.878;6.168;2023-06-24T04:05:54;14.80;99.90
59148;DHT22;44930;52.878;6.168;2023-06-24T04:08:20;14.80;99.90
59148;DHT22;44930;52.878;6.168;2023-06-24T04:10:45;14.60;99.90
59148;DHT22;44930;52.878;6.168;2023-06-24T04:13:11;14.60;99.90
59148;DHT22;44930;52.878;6.168;2023-06-24T04:15:36;14.80;99.90
59148;DHT22;44930;52.878;6.168;2023-06-24T04:18:03;14.80;99.90
59148;DHT22;44930;52.878;6.168;2023-06-24T04:20:28;15.10;99.90
59148;DHT22;44930;52.878;6.168;2023-06-24T04:22:54;14.70;99.90
59148;DHT22;44930;52.878;6.168;2023-06-24T04:25:19;15.40;99.90
59148;DHT22;44930;52.878;6.168;2023-06-24T04:27:45;15.10;99.90
59148;DHT22;44930;52.878;6.168;2023-06-24T04:30:11;15.40;99.90
59148;DHT22;44930;52.878;6.168;2023-06-24T04:32:37;15.40;99.90
59148;DHT22;44930;52.878;6.168;2023-06-24T04:35:03;15.30;99.90
59148;DHT22;44930;52.878;6.168;2023-06-24T04:37:29;15.40;99.90
59148;DHT22;44930;52.878;6.168;2023-06-24T04:39:55;15.50;99.90
59148;DHT22;44930;52.878;6.168;2023-06-24T04:42:21;15.70;99.90
59148;DHT22;44930;52.878;6.168;2023-06-24T04:44:48;15.70;99.90
59148;DHT22;44930;52.878;6.168;2023-06-24T04:47:17;15.70;99.90
59148;DHT22;44930;52.878;6.168;2023-06-24T04:49:43;15.60;99.90
59148;DHT22;44930;52.878;6.168;2023-06-24T04:52:10;15.90;99.90
59148;DHT22;44930;52.878;6.168;2023-06-24T04:54:36;16.20;99.90
59148;DHT22;44930;52.878;6.168;2023-06-24T04:57:02;15.80;99.90
59148;DHT22;44930;52.878;6.168;2023-06-24T04:59:27;16.30;99.90
59148;DHT22;44930;52.878;6.168;2023-06-24T05:01:53;16.30;99.90
59148;DHT22;44930;52.878;6.168;2023-06-24T05:04:18;16.30;99.90
59148;DHT22;44930;52.878;6.168;2023-06-24T05:06:44;16.40;99.90
59148;DHT22;44930;52.878;6.168;2023-06-24T05:09:10;16.10;99.90
59148;DHT22;44930;52.878;6.168;2023-06-24T05:11:40;16.70;99.90
59148;DHT22;44930;52.878;6.168;2023-06-24T05:14:06;16.70;99.90
59148;DHT22;44930;52.878;6.168;2023-06-24T05:16:31;16.40;99.90
59148;DHT22;44930;52.878;6.168;2023-06-24T05:18:57;16.50;99.90
59148;DHT22;44930;52.878;6.168;2023-06-24T05:21:22;16.50;99.90
59148;DHT22;44930;52.878;6.168;2023-06-24T05:23:48;16.30;99.90
59148;DHT22;44930;52.878;6.168;2023-06-24T05:26:14;17.00;99.90
59148;DHT22;44930;52.878;6.168;2023-06-24T05:28:39;16.40;99.90
59148;DHT22;44930;52.878;6.168;2023-06-24T05:31:05;16.60;99.90
59148;DHT22;44930;52.878;6.168;2023-06-24T05:33:31;16.50;99.90
59148;DHT22;44930;52.878;6.168;2023-06-24T05:35:56;17.00;99.90
59148;DHT22;44930;52.878;6.168;2023-06-24T05:38:22;17.50;99.90
59148;DHT22;44930;52.878;6.168;2023-06-24T05:40:47;17.00;99.90
59148;DHT22;44930;52.878;6.168;2023-06-24T05:43:13;16.60;99.90
59148;DHT22;44930;52.878;6.168;2023-06-24T05:45:38;17.60;99.90
59148;DHT22;44930;52.878;6.168;2023-06-24T05:48:04;17.40;99.90
59148;DHT22;44930;52.878;6.168;2023-06-24T05:50:30;17.30;99.90
59148;DHT22;44930;52.878;6.168;2023-06-24T05:52:55;17.50;99.90
59148;DHT22;44930;52.878;6.168;2023-06-24T05:55:21;17.90;99.90
59148;DHT22;44930;52.878;6.168;2023-06-24T05:57:47;17.50;99.90
59148;DHT22;44930;52.878;6.168;2023-06-24T06:00:12;17.70;99.90
59148;DHT22;44930;52.878;6.168;2023-06-24T06:02:38;17.60;99.90
59148;DHT22;44930;52.878;6.168;2023-06-24T06:05:04;17.70;99.90
59148;DHT22;44930;52.878;6.168;2023-06-24T06:07:30;17.90;99.90
59148;DHT22;44930;52.878;6.168;2023-06-24T06:09:55;17.80;99.90
59148;DHT22;44930;52.878;6.168;2023-06-24T06:12:21;18.30;99.90
59148;DHT22;44930;52.878;6.168;2023-06-24T06:14:47;17.60;99.90
59148;DHT22;44930;52.878;6.168;2023-06-24T06:17:14;18.10;99.90
59148;DHT22;44930;52.878;6.168;2023-06-24T06:19:39;18.30;99.90
59148;DHT22;44930;52.878;6.168;2023-06-24T06:22:07;17.60;99.90
59148;DHT22;44930;52.878;6.168;2023-06-24T06:24:33;18.00;99.90
59148;DHT22;44930;52.878;6.168;2023-06-24T06:26:58;18.30;99.90
59148;DHT22;44930;52.878;6.168;2023-06-24T06:29:25;18.50;99.90
59148;DHT22;44930;52.878;6.168;2023-06-24T06:31:50;18.60;99.90
59148;DHT22;44930;52.878;6.168;2023-06-24T06:34:18;19.10;99.90
59148;DHT22;44930;52.878;6.168;2023-06-24T06:36:43;19.20;99.90
59148;DHT22;44930;52.878;6.168;2023-06-24T06:39:09;18.80;99.90
59148;DHT22;44930;52.878;6.168;2023-06-24T06:41:34;19.30;99.90
59148;DHT22;44930;52.878;6.168;2023-06-24T06:44:00;19.60;99.90
59148;DHT22;44930;52.878;6.168;2023-06-24T06:46:25;19.10;99.90
59148;DHT22;44930;52.878;6.168;2023-06-24T06:48:51;19.70;99.90
59148;DHT22;44930;52.878;6.168;2023-06-24T06:51:16;19.70;99.90
59148;DHT22;44930;52.878;6.168;2023-06-24T06:53:44;19.60;99.90
59148;DHT22;44930;52.878;6.168;2023-06-24T06:56:22;19.70;99.90
59148;DHT22;44930;52.878;6.168;2023-06-24T06:58:50;20.00;99.90
59148;DHT22;44930;52.878;6.168;2023-06-24T07:01:15;19.90;99.90
59148;DHT22;44930;52.878;6.168;2023-06-24T07:03:41;19.80;99.90
59148;DHT22;44930;52.878;6.168;2023-06-24T07:06:06;20.00;99.90
59148;DHT22;44930;52.878;6.168;2023-06-24T07:08:33;20.20;99.90
59148;DHT22;44930;52.878;6.168;2023-06-24T07:10:59;20.50;99.90
59148;DHT22;44930;52.878;6.168;2023-06-24T07:13:25;20.10;99.90
59148;DHT22;44930;52.878;6.168;2023-06-24T07:15:50;20.70;99.90
59148;DHT22;44930;52.878;6.168;2023-06-24T07:18:16;20.50;99.90
59148;DHT22;44930;52.878;6.168;2023-06-24T07:20:41;21.40;99.90
59148;DHT22;44930;52.878;6.168;2023-06-24T07:23:07;20.90;99.90
59148;DHT22;44930;52.878;6.168;2023-06-24T07:25:32;21.20;99.90
59148;DHT22;44930;52.878;6.168;2023-06-24T07:27:59;20.90;99.90
59148;DHT22;44930;52.878;6.168;2023-06-24T07:30:25;22.40;99.90
59148;DHT22;44930;52.878;6.168;2023-06-24T07:32:50;21.30;99.90
59148;DHT22;44930;52.878;6.168;2023-06-24T07:35:16;21.50;99.90
59148;DHT22;44930;52.878;6.168;2023-06-24T07:37:41;21.30;99.90
59148;DHT22;44930;52.878;6.168;2023-06-24T07:40:07;21.30;99.90
59148;DHT22;44930;52.878;6.168;2023-06-24T07:42:34;21.00;99.90
59148;DHT22;44930;52.878;6.168;2023-06-24T07:44:59;21.20;99.90
59148;DHT22;44930;52.878;6.168;2023-06-24T07:47:25;21.60;99.90
59148;DHT22;44930;52.878;6.168;2023-06-24T07:49:51;21.60;99.90
59148;DHT22;44930;52.878;6.168;2023-06-24T07:52:17;23.20;99.90
59148;DHT22;44930;52.878;6.168;2023-06-24T07:54:42;21.70;99.90
59148;DHT22;44930;52.878;6.168;2023-06-24T07:57:08;21.90;99.90
59148;DHT22;44930;52.878;6.168;2023-06-24T07:59:33;21.60;99.90
59148;DHT22;44930;52.878;6.168;2023-06-24T08:01:59;22.00;99.90
59148;DHT22;44930;52.878;6.168;2023-06-24T08:04:25;22.10;99.90
59148;DHT22;44930;52.878;6.168;2023-06-24T08:06:50;23.20;99.90
59148;DHT22;44930;52.878;6.168;2023-06-24T08:09:17;22.10;99.90
59148;DHT22;44930;52.878;6.168;2023-06-24T08:11:43;21.60;99.90
59148;DHT22;44930;52.878;6.168;2023-06-24T08:14:08;22.20;99.90
59148;DHT22;44930;52.878;6.168;2023-06-24T08:16:34;22.30;99.90
59148;DHT22;44930;52.878;6.168;2023-06-24T08:18:59;21.70;99.90
59148;DHT22;44930;52.878;6.168;2023-06-24T08:21:25;22.10;99.90
59148;DHT22;44930;52.878;6.168;2023-06-24T08:23:50;21.70;99.90
59148;DHT22;44930;52.878;6.168;2023-06-24T08:26:17;22.70;99.90
59148;DHT22;44930;52.878;6.168;2023-06-24T08:28:42;22.00;99.90
59148;DHT22;44930;52.878;6.168;2023-06-24T08:31:08;22.10;99.90
59148;DHT22;44930;52.878;6.168;2023-06-24T08:33:33;23.60;99.90
59148;DHT22;44930;52.878;6.168;2023-06-24T08:35:59;23.80;99.90
59148;DHT22;44930;52.878;6.168;2023-06-24T08:38:25;22.00;99.90
59148;DHT22;44930;52.878;6.168;2023-06-24T08:40:52;22.20;99.90
59148;DHT22;44930;52.878;6.168;2023-06-24T08:43:17;22.20;99.90
59148;DHT22;44930;52.878;6.168;2023-06-24T08:45:43;23.60;99.90
59148;DHT22;44930;52.878;6.168;2023-06-24T08:48:08;22.80;99.90
59148;DHT22;44930;52.878;6.168;2023-06-24T08:50:43;23.10;99.90
59148;DHT22;44930;52.878;6.168;2023-06-24T08:53:10;22.80;99.90
59148;DHT22;44930;52.878;6.168;2023-06-24T08:55:43;22.90;99.90
59148;DHT22;44930;52.878;6.168;2023-06-24T08:58:08;22.80;99.90
59148;DHT22;44930;52.878;6.168;2023-06-24T09:00:34;23.70;99.90
59148;DHT22;44930;52.878;6.168;2023-06-24T09:03:00;23.30;99.90
59148;DHT22;44930;52.878;6.168;2023-06-24T09:05:26;23.20;99.90
59148;DHT22;44930;52.878;6.168;2023-06-24T09:07:51;23.30;99.90
59148;DHT22;44930;52.878;6.168;2023-06-24T09:10:33;23.60;99.90
59148;DHT22;44930;52.878;6.168;2023-06-24T09:13:03;23.40;99.90
59148;DHT22;44930;52.878;6.168;2023-06-24T09:15:36;23.90;99.90
59148;DHT22;44930;52.878;6.168;2023-06-24T09:18:04;23.60;99.90
59148;DHT22;44930;52.878;6.168;2023-06-24T09:20:30;24.20;99.90
59148;DHT22;44930;52.878;6.168;2023-06-24T09:23:01;24.10;99.90
59148;DHT22;44930;52.878;6.168;2023-06-24T09:25:27;24.20;99.90
59148;DHT22;44930;52.878;6.168;2023-06-24T09:27:53;24.50;99.90
59148;DHT22;44930;52.878;6.168;2023-06-24T09:30:22;25.30;99.90
59148;DHT22;44930;52.878;6.168;2023-06-24T09:32:48;24.30;99.90
59148;DHT22;44930;52.878;6.168;2023-06-24T09:35:16;24.20;99.90
59148;DHT22;44930;52.878;6.168;2023-06-24T09:37:43;24.50;99.90
59148;DHT22;44930;52.878;6.168;2023-06-24T09:40:09;24.10;99.90
59148;DHT22;44930;52.878;6.168;2023-06-24T09:42:35;24.50;99.90
59148;DHT22;44930;52.878;6.168;2023-06-24T09:45:05;24.50;99.90
59148;DHT22;44930;52.878;6.168;2023-06-24T09:47:31;24.20;99.90
59148;DHT22;44930;52.878;6.168;2023-06-24T09:49:57;24.60;99.90
59148;DHT22;44930;52.878;6.168;2023-06-24T09:52:23;24.70;99.90
59148;DHT22;44930;52.878;6.168;2023-06-24T09:54:51;26.30;99.90
59148;DHT22;44930;52.878;6.168;2023-06-24T09:57:27;24.70;99.90
59148;DHT22;44930;52.878;6.168;2023-06-24T09:59:54;24.20;99.90
59148;DHT22;44930;52.878;6.168;2023-06-24T10:02:20;25.00;99.90
59148;DHT22;44930;52.878;6.168;2023-06-24T10:04:46;25.30;99.90
59148;DHT22;44930;52.878;6.168;2023-06-24T10:07:13;24.80;99.90
59148;DHT22;44930;52.878;6.168;2023-06-24T10:09:40;25.10;99.90
59148;DHT22;44930;52.878;6.168;2023-06-24T10:12:06;25.50;99.90
59148;DHT22;44930;52.878;6.168;2023-06-24T10:14:32;25.40;99.90
59148;DHT22;44930;52.878;6.168;2023-06-24T10:17:02;25.90;99.90
59148;DHT22;44930;52.878;6.168;2023-06-24T10:19:28;26.10;99.90
59148;DHT22;44930;52.878;6.168;2023-06-24T10:21:57;25.80;99.90
59148;DHT22;44930;52.878;6.168;2023-06-24T10:24:34;25.50;99.90
59148;DHT22;44930;52.878;6.168;2023-06-24T10:27:07;28.00;99.90
59148;DHT22;44930;52.878;6.168;2023-06-24T10:29:36;25.90;99.90
59148;DHT22;44930;52.878;6.168;2023-06-24T10:32:11;25.90;99.90
59148;DHT22;44930;52.878;6.168;2023-06-24T10:37:49;26.70;99.90
59148;DHT22;44930;52.878;6.168;2023-06-24T10:40:00;26.10;99.90
59148;DHT22;44930;52.878;6.168;2023-06-24T10:44:54;26.80;99.90
59148;DHT22;44930;52.878;6.168;2023-06-24T10:47:22;27.90;99.90
59148;DHT22;44930;52.878;6.168;2023-06-24T10:49:48;27.10;99.80
59148;DHT22;44930;52.878;6.168;2023-06-24T10:52:13;26.40;99.00
59148;DHT22;44930;52.878;6.168;2023-06-24T10:54:41;26.60;99.20
59148;DHT22;44930;52.878;6.168;2023-06-24T10:57:11;28.20;99.40
59148;DHT22;44930;52.878;6.168;2023-06-24T10:59:41;26.70;98.50
59148;DHT22;44930;52.878;6.168;2023-06-24T11:02:13;27.20;98.60
59148;DHT22;44930;52.878;6.168;2023-06-24T11:04:47;26.90;98.90
59148;DHT22;44930;52.878;6.168;2023-06-24T11:07:13;26.80;98.10
59148;DHT22;44930;52.878;6.168;2023-06-24T11:09:42;27.30;98.00
59148;DHT22;44930;52.878;6.168;2023-06-24T11:12:13;27.30;98.40
59148;DHT22;44930;52.878;6.168;2023-06-24T11:14:39;27.00;97.80
59148;DHT22;44930;52.878;6.168;2023-06-24T11:17:05;27.20;97.90
59148;DHT22;44930;52.878;6.168;2023-06-24T11:19:31;27.20;97.70
59148;DHT22;44930;52.878;6.168;2023-06-24T11:22:00;27.30;98.10
59148;DHT22;44930;52.878;6.168;2023-06-24T11:24:27;27.40;96.30
59148;DHT22;44930;52.878;6.168;2023-06-24T11:26:53;27.50;96.30
59148;DHT22;44930;52.878;6.168;2023-06-24T11:29:19;27.60;95.80
59148;DHT22;44930;52.878;6.168;2023-06-24T11:31:48;28.00;96.70
59148;DHT22;44930;52.878;6.168;2023-06-24T11:34:14;27.30;96.10
59148;DHT22;44930;52.878;6.168;2023-06-24T11:36:39;27.50;95.70
59148;DHT22;44930;52.878;6.168;2023-06-24T11:39:05;27.80;95.60
59148;DHT22;44930;52.878;6.168;2023-06-24T11:41:30;27.90;94.80
59148;DHT22;44930;52.878;6.168;2023-06-24T11:43:59;28.20;94.80
59148;DHT22;44930;52.878;6.168;2023-06-24T11:46:25;27.80;95.00
59148;DHT22;44930;52.878;6.168;2023-06-24T11:48:51;27.50;95.10
59148;DHT22;44930;52.878;6.168;2023-06-24T11:51:17;29.60;95.80
59148;DHT22;44930;52.878;6.168;2023-06-24T11:53:44;28.20;95.00
59148;DHT22;44930;52.878;6.168;2023-06-24T11:56:11;27.90;94.20
59148;DHT22;44930;52.878;6.168;2023-06-24T11:58:37;28.70;94.50
59148;DHT22;44930;52.878;6.168;2023-06-24T12:01:03;28.50;93.00
59148;DHT22;44930;52.878;6.168;2023-06-24T12:03:32;28.60;93.50
59148;DHT22;44930;52.878;6.168;2023-06-24T12:05:59;29.30;93.80
59148;DHT22;44930;52.878;6.168;2023-06-24T12:08:25;28.50;93.80
59148;DHT22;44930;52.878;6.168;2023-06-24T12:10:51;28.40;93.60
59148;DHT22;44930;52.878;6.168;2023-06-24T12:13:17;28.30;93.30
59148;DHT22;44930;52.878;6.168;2023-06-24T12:15:43;28.30;93.10
59148;DHT22;44930;52.878;6.168;2023-06-24T12:18:09;30.40;94.00
59148;DHT22;44930;52.878;6.168;2023-06-24T12:20:35;29.10;92.70
59148;DHT22;44930;52.878;6.168;2023-06-24T12:23:02;29.20;92.20
59148;DHT22;44930;52.878;6.168;2023-06-24T12:25:29;29.60;93.00
59148;DHT22;44930;52.878;6.168;2023-06-24T12:27:54;28.90;92.30
59148;DHT22;44930;52.878;6.168;2023-06-24T12:30:20;29.60;92.10
59148;DHT22;44930;52.878;6.168;2023-06-24T12:32:49;31.00;92.50
59148;DHT22;44930;52.878;6.168;2023-06-24T12:35:14;29.10;91.50
59148;DHT22;44930;52.878;6.168;2023-06-24T12:37:40;29.60;92.90
59148;DHT22;44930;52.878;6.168;2023-06-24T12:40:06;29.50;91.70
59148;DHT22;44930;52.878;6.168;2023-06-24T12:42:31;29.70;91.70
59148;DHT22;44930;52.878;6.168;2023-06-24T12:44:57;30.50;91.40
59148;DHT22;44930;52.878;6.168;2023-06-24T12:47:22;29.30;90.80
59148;DHT22;44930;52.878;6.168;2023-06-24T12:49:49;30.90;91.00
59148;DHT22;44930;52.878;6.168;2023-06-24T12:52:15;29.40;91.30
59148;DHT22;44930;52.878;6.168;2023-06-24T12:54:41;29.90;91.10
59148;DHT22;44930;52.878;6.168;2023-06-24T12:57:06;30.10;91.40
59148;DHT22;44930;52.878;6.168;2023-06-24T12:59:32;29.50;91.10
59148;DHT22;44930;52.878;6.168;2023-06-24T13:01:57;31.20;91.80
59148;DHT22;44930;52.878;6.168;2023-06-24T13:04:23;29.40;91.30
59148;DHT22;44930;52.878;6.168;2023-06-24T13:06:53;31.10;91.90
59148;DHT22;44930;52.878;6.168;2023-06-24T13:09:19;29.50;90.40
59148;DHT22;44930;52.878;6.168;2023-06-24T13:11:45;29.20;90.80
59148;DHT22;44930;52.878;6.168;2023-06-24T13:14:10;29.30;91.00
59148;DHT22;44930;52.878;6.168;2023-06-24T13:16:36;29.50;91.50
59148;DHT22;44930;52.878;6.168;2023-06-24T13:19:02;29.20;91.20
59148;DHT22;44930;52.878;6.168;2023-06-24T13:21:28;29.80;91.00
59148;DHT22;44930;52.878;6.168;2023-06-24T13:23:53;29.70;89.60
59148;DHT22;44930;52.878;6.168;2023-06-24T13:26:19;30.00;90.40
59148;DHT22;44930;52.878;6.168;2023-06-24T13:28:45;30.20;90.60
59148;DHT22;44930;52.878;6.168;2023-06-24T13:31:11;30.20;90.50
59148;DHT22;44930;52.878;6.168;2023-06-24T13:33:36;31.30;90.60
59148;DHT22;44930;52.878;6.168;2023-06-24T13:36:03;29.50;90.20
59148;DHT22;44930;52.878;6.168;2023-06-24T13:38:28;30.30;90.40
59148;DHT22;44930;52.878;6.168;2023-06-24T13:40:54;30.00;90.40
59148;DHT22;44930;52.878;6.168;2023-06-24T13:43:19;29.60;91.00
59148;DHT22;44930;52.878;6.168;2023-06-24T13:45:45;29.10;91.40
59148;DHT22;44930;52.878;6.168;2023-06-24T13:48:10;28.40;91.90
59148;DHT22;44930;52.878;6.168;2023-06-24T13:50:36;28.00;92.40
59148;DHT22;44930;52.878;6.168;2023-06-24T13:53:02;27.70;92.60
59148;DHT22;44930;52.878;6.168;2023-06-24T13:55:27;27.70;92.90
59148;DHT22;44930;52.878;6.168;2023-06-24T13:57:53;27.50;93.30
59148;DHT22;44930;52.878;6.168;2023-06-24T14:00:19;28.50;94.30
59148;DHT22;44930;52.878;6.168;2023-06-24T14:02:45;27.50;94.80
59148;DHT22;44930;52.878;6.168;2023-06-24T14:05:11;27.40;94.40
59148;DHT22;44930;52.878;6.168;2023-06-24T14:07:36;28.00;94.20
59148;DHT22;44930;52.878;6.168;2023-06-24T14:10:02;27.80;93.80
59148;DHT22;44930;52.878;6.168;2023-06-24T14:12:28;27.80;93.80
59148;DHT22;44930;52.878;6.168;2023-06-24T14:14:54;28.60;93.80
59148;DHT22;44930;52.878;6.168;2023-06-24T14:17:19;27.90;93.50
59148;DHT22;44930;52.878;6.168;2023-06-24T14:19:45;27.70;93.90
59148;DHT22;44930;52.878;6.168;2023-06-24T14:22:11;28.30;94.40
59148;DHT22;44930;52.878;6.168;2023-06-24T14:24:37;27.40;94.10
59148;DHT22;44930;52.878;6.168;2023-06-24T14:27:05;28.50;94.80
59148;DHT22;44930;52.878;6.168;2023-06-24T14:29:30;27.20;94.70
59148;DHT22;44930;52.878;6.168;2023-06-24T14:31:56;26.90;95.20
59148;DHT22;44930;52.878;6.168;2023-06-24T14:34:22;26.80;95.40
59148;DHT22;44930;52.878;6.168;2023-06-24T14:36:47;26.90;95.20
59148;DHT22;44930;52.878;6.168;2023-06-24T14:39:15;26.30;95.00
59148;DHT22;44930;52.878;6.168;2023-06-24T14:41:43;28.30;95.20
59148;DHT22;44930;52.878;6.168;2023-06-24T14:44:10;26.40;94.80
59148;DHT22;44930;52.878;6.168;2023-06-24T14:46:36;27.70;96.00
59148;DHT22;44930;52.878;6.168;2023-06-24T14:49:01;26.40;95.60
59148;DHT22;44930;52.878;6.168;2023-06-24T14:51:27;26.70;95.80
59148;DHT22;44930;52.878;6.168;2023-06-24T14:53:53;26.70;96.20
59148;DHT22;44930;52.878;6.168;2023-06-24T14:56:18;27.00;96.30
59148;DHT22;44930;52.878;6.168;2023-06-24T14:58:44;26.70;96.30
59148;DHT22;44930;52.878;6.168;2023-06-24T15:01:09;26.60;96.90
59148;DHT22;44930;52.878;6.168;2023-06-24T15:03:35;26.60;96.50
59148;DHT22;44930;52.878;6.168;2023-06-24T15:06:00;26.80;96.70
59148;DHT22;44930;52.878;6.168;2023-06-24T15:08:26;26.80;96.60
59148;DHT22;44930;52.878;6.168;2023-06-24T15:10:52;28.30;97.20
59148;DHT22;44930;52.878;6.168;2023-06-24T15:13:18;27.90;97.20
59148;DHT22;44930;52.878;6.168;2023-06-24T15:15:44;26.70;96.70
59148;DHT22;44930;52.878;6.168;2023-06-24T15:18:10;26.90;96.80
59148;DHT22;44930;52.878;6.168;2023-06-24T15:20:35;28.30;96.60
59148;DHT22;44930;52.878;6.168;2023-06-24T15:23:01;27.60;96.00
59148;DHT22;44930;52.878;6.168;2023-06-24T15:25:27;27.90;96.00
59148;DHT22;44930;52.878;6.168;2023-06-24T15:27:53;27.00;96.00
59148;DHT22;44930;52.878;6.168;2023-06-24T15:30:19;27.40;96.20
59148;DHT22;44930;52.878;6.168;2023-06-24T15:32:44;27.20;95.70
59148;DHT22;44930;52.878;6.168;2023-06-24T15:35:11;27.00;95.40
59148;DHT22;44930;52.878;6.168;2023-06-24T15:37:37;26.80;95.50
59148;DHT22;44930;52.878;6.168;2023-06-24T15:40:03;26.80;96.00
59148;DHT22;44930;52.878;6.168;2023-06-24T15:42:29;27.10;95.70
59148;DHT22;44930;52.878;6.168;2023-06-24T15:44:55;27.10;96.00